createdAt,value
2018-04-16T00:19:07.616Z,10.88
2018-04-16T00:39:52.270Z,10.71
2018-04-16T01:00:33.070Z,10.46
2018-04-16T01:21:15.105Z,9.97
2018-04-16T01:41:53.764Z,9.68
2018-04-16T02:02:31.802Z,9.41
2018-04-16T02:23:12.903Z,8.92
2018-04-16T02:43:55.614Z,8.65
2018-04-16T03:04:36.656Z,8.42
2018-04-16T03:25:15.270Z,8.70
2018-04-16T03:45:55.447Z,8.61
2018-04-16T04:06:30.460Z,8.19
2018-04-16T04:27:22.623Z,8.18
2018-04-16T04:47:57.902Z,8.10
2018-04-16T05:08:31.525Z,7.59
2018-04-16T05:29:08.774Z,7.73
2018-04-16T05:49:39.719Z,8.01
2018-04-16T06:10:14.187Z,8.18
2018-04-16T06:30:51.184Z,9.22
2018-04-16T06:51:27.377Z,10.18
2018-04-16T07:12:01.908Z,10.68
2018-04-16T07:32:34.845Z,11.63
2018-04-16T07:53:10.121Z,12.75
2018-04-16T08:13:42.322Z,14.04
2018-04-16T08:34:16.671Z,15.52
2018-04-16T08:54:49.788Z,16.43
2018-04-16T09:15:22.916Z,16.69
2018-04-16T09:35:57.273Z,17.32
2018-04-16T09:56:28.235Z,17.37
2018-04-16T10:17:02.897Z,17.36
2018-04-16T10:37:38.780Z,17.07
2018-04-16T10:58:10.986Z,17.44
2018-04-16T11:18:46.253Z,17.94
2018-04-16T11:39:20.293Z,18.02
2018-04-16T11:59:52.904Z,18.31
2018-04-16T12:20:25.922Z,19.13
2018-04-16T12:41:04.536Z,18.93
2018-04-16T13:01:38.309Z,19.56
2018-04-16T13:22:13.895Z,19.83
2018-04-16T13:42:46.706Z,20.22
2018-04-16T14:03:30.270Z,21.17
2018-04-16T14:24:04.314Z,20.93
2018-04-16T14:44:37.780Z,21.74
2018-04-16T15:05:20.385Z,22.52
2018-04-16T15:25:55.077Z,22.15
2018-04-16T15:46:30.532Z,20.43
2018-04-16T16:07:04.361Z,20.09
2018-04-16T16:27:38.705Z,19.70
2018-04-16T16:48:15.219Z,19.64
2018-04-16T17:08:49.535Z,19.01
2018-04-16T17:29:25.446Z,18.76
2018-04-16T18:08:00.593Z,17.35
2018-04-16T18:28:34.588Z,16.13
2018-04-16T18:49:08.634Z,15.18
2018-04-16T19:09:42.984Z,14.53
2018-04-16T19:30:15.182Z,13.86
2018-04-16T19:50:50.719Z,13.51
2018-04-16T20:11:22.655Z,12.90
2018-04-16T20:31:58.116Z,12.41
2018-04-16T20:52:30.326Z,11.99
2018-04-16T21:13:02.331Z,11.62
2018-04-16T21:33:39.135Z,11.04
2018-04-16T21:54:10.724Z,10.77
2018-04-16T22:14:51.262Z,10.20
2018-04-16T22:35:25.256Z,9.98
2018-04-16T22:55:58.377Z,9.55
2018-04-16T23:16:35.492Z,9.24
2018-04-16T23:37:08.929Z,8.94
2018-04-16T23:57:43.274Z,8.77
